createdAt,value
2018-09-10T00:00:26.292Z,22.31
2018-09-10T00:01:26.336Z,22.69
2018-09-10T00:02:26.375Z,21.93
2018-09-10T00:03:26.412Z,21.25
2018-09-10T00:04:26.451Z,20.03
2018-09-10T00:05:26.495Z,20.21
2018-09-10T00:06:26.530Z,20.40
2018-09-10T00:07:26.572Z,20.98
2018-09-10T00:08:26.613Z,21.45
2018-09-10T00:09:26.653Z,21.35
2018-09-10T00:10:26.688Z,22.20
2018-09-10T00:11:26.773Z,21.25
2018-09-10T00:12:26.766Z,20.87
2018-09-10T00:13:26.806Z,19.92
2018-09-10T00:14:26.844Z,20.11
2018-09-10T00:15:26.884Z,19.82
2018-09-10T00:16:26.931Z,20.01
2018-09-10T00:17:26.964Z,20.20
2018-09-10T00:18:27.001Z,20.11
2018-09-10T00:19:27.046Z,20.11
2018-09-10T00:20:27.083Z,20.87
2018-09-10T00:21:27.120Z,20.59
2018-09-10T00:22:27.160Z,20.20
2018-09-10T00:23:27.198Z,19.44
2018-09-10T00:24:27.239Z,18.87
2018-09-10T00:25:27.281Z,17.72
2018-09-10T00:26:27.320Z,17.82
2018-09-10T00:27:27.358Z,17.54
2018-09-10T00:28:27.397Z,17.16
2018-09-10T00:29:27.438Z,17.92
2018-09-10T00:30:27.474Z,18.87
2018-09-10T00:31:27.517Z,19.82
2018-09-10T00:32:27.555Z,19.16
2018-09-10T00:33:27.594Z,18.20
2018-09-10T00:34:27.633Z,18.30
2018-09-10T00:35:27.673Z,18.49
2018-09-10T00:36:27.762Z,18.30
2018-09-10T00:37:27.754Z,18.96
2018-09-10T00:38:27.788Z,19.25
2018-09-10T00:39:27.835Z,19.54
2018-09-10T00:40:27.875Z,19.35
2018-09-10T00:41:27.908Z,19.44
2018-09-10T00:42:27.947Z,19.82
2018-09-10T00:43:27.987Z,20.40
2018-09-10T00:44:28.026Z,21.73
2018-09-10T00:45:28.073Z,22.58
2018-09-10T00:46:28.112Z,22.39
2018-09-10T00:47:28.142Z,22.86
2018-09-10T00:48:28.182Z,21.91
2018-09-10T00:49:28.220Z,20.10
2018-09-10T00:50:28.261Z,19.05
2018-09-10T00:51:28.301Z,17.81
2018-09-10T00:52:28.340Z,17.14
2018-09-10T00:53:28.379Z,15.91
2018-09-10T00:54:28.418Z,15.72
2018-09-10T00:55:28.459Z,15.53
2018-09-10T00:56:28.497Z,16.19
2018-09-10T00:57:28.535Z,16.48
2018-09-10T00:58:28.574Z,16.77
2018-09-10T00:59:28.616Z,17.05
2018-09-10T01:00:28.653Z,17.24
2018-09-10T01:01:28.693Z,17.53
2018-09-10T01:02:28.732Z,17.72
2018-09-10T01:03:28.771Z,18.19
2018-09-10T01:04:28.810Z,18.01
2018-09-10T01:05:28.853Z,18.29
2018-09-10T01:06:28.889Z,18.77
2018-09-10T01:07:28.928Z,18.57
2018-09-10T01:08:28.968Z,17.91
2018-09-10T01:09:29.007Z,17.81
2018-09-10T01:10:29.044Z,17.14
2018-09-10T01:11:29.084Z,17.14
2018-09-10T01:12:29.122Z,17.43
2018-09-10T01:13:29.164Z,17.62
2018-09-10T01:14:29.201Z,17.62
2018-09-10T01:15:29.241Z,17.53
2018-09-10T01:16:29.279Z,17.14
2018-09-10T01:17:29.319Z,16.96
2018-09-10T01:18:29.356Z,16.67
2018-09-10T01:19:29.396Z,16.38
2018-09-10T01:20:29.435Z,16.38
2018-09-10T01:21:29.475Z,16.67
2018-09-10T01:22:29.513Z,16.19
2018-09-10T01:23:29.553Z,16.29
2018-09-10T01:24:29.621Z,15.81
2018-09-10T01:25:29.631Z,16.00
2018-09-10T01:26:29.672Z,15.80
2018-09-10T01:27:29.708Z,15.72
2018-09-10T01:28:29.750Z,15.24
2018-09-10T01:29:29.786Z,15.05
2018-09-10T01:30:29.926Z,15.42
2018-09-10T01:31:29.864Z,14.85
2018-09-10T01:32:29.904Z,14.85
2018-09-10T01:33:29.944Z,14.66
2018-09-10T01:34:29.982Z,14.76
2018-09-10T01:35:30.030Z,14.29
2018-09-10T01:36:30.061Z,14.85
2018-09-10T01:37:30.101Z,14.37
2018-09-10T01:38:30.138Z,14.00
2018-09-10T01:39:30.182Z,13.90
2018-09-10T01:40:30.216Z,13.90
2018-09-10T01:41:30.257Z,13.90
2018-09-10T01:42:30.292Z,14.00
2018-09-10T01:43:30.332Z,13.90
2018-09-10T01:44:30.373Z,14.00
2018-09-10T01:45:30.421Z,14.39
2018-09-10T01:46:30.449Z,14.48
2018-09-10T01:47:30.488Z,14.95
2018-09-10T01:48:30.527Z,14.85
2018-09-10T01:49:30.570Z,14.95
2018-09-10T01:50:30.606Z,15.53
2018-09-10T01:51:30.643Z,15.23
2018-09-10T01:52:30.683Z,15.14
2018-09-10T01:53:30.721Z,15.52
2018-09-10T01:54:30.761Z,15.33
2018-09-10T01:55:30.800Z,15.80
2018-09-10T01:56:30.839Z,15.61
2018-09-10T01:57:30.879Z,16.00
2018-09-10T01:58:30.918Z,15.80
2018-09-10T01:59:30.956Z,15.80
2018-09-10T02:00:30.994Z,15.80
2018-09-10T02:01:31.035Z,15.90
2018-09-10T02:02:31.072Z,16.00
2018-09-10T02:03:31.111Z,16.00
2018-09-10T02:04:31.151Z,16.19
2018-09-10T02:05:31.189Z,15.80
2018-09-10T02:06:31.278Z,15.14
2018-09-10T02:07:31.268Z,14.76
2018-09-10T02:08:31.318Z,14.95
2018-09-10T02:09:31.344Z,15.23
2018-09-10T02:10:31.384Z,15.61
2018-09-10T02:11:31.425Z,16.47
2018-09-10T02:12:31.462Z,15.90
2018-09-10T02:13:31.501Z,16.56
2018-09-10T02:14:31.539Z,17.04
2018-09-10T02:15:31.579Z,16.09
2018-09-10T02:16:31.617Z,15.52
2018-09-10T02:17:31.658Z,15.61
2018-09-10T02:18:31.693Z,14.85
2018-09-10T02:19:31.734Z,13.71
2018-09-10T02:20:31.772Z,12.95
2018-09-10T02:21:31.812Z,12.95
2018-09-10T02:22:31.849Z,12.95
2018-09-10T02:23:31.944Z,13.42
2018-09-10T02:24:31.928Z,13.90
2018-09-10T02:25:31.970Z,14.09
2018-09-10T02:26:32.005Z,14.28
2018-09-10T02:27:32.263Z,14.28
2018-09-10T02:28:32.084Z,14.37
2018-09-10T02:29:32.126Z,14.66
2018-09-10T02:30:32.161Z,15.05
2018-09-10T02:31:32.216Z,14.95
2018-09-10T02:32:32.240Z,15.14
2018-09-10T02:33:32.279Z,15.14
2018-09-10T02:34:32.321Z,14.95
2018-09-10T02:35:32.355Z,15.33
2018-09-10T02:36:32.395Z,15.23
2018-09-10T02:37:32.441Z,15.33
2018-09-10T02:38:32.552Z,15.71
2018-09-10T02:39:32.513Z,15.71
2018-09-10T02:40:32.554Z,15.80
2018-09-10T02:41:32.589Z,15.80
2018-09-10T02:42:32.626Z,15.80
2018-09-10T02:43:32.666Z,15.14
2018-09-10T02:44:32.707Z,14.85
2018-09-10T02:45:32.745Z,14.95
2018-09-10T02:46:32.784Z,15.14
2018-09-10T02:47:32.823Z,15.42
2018-09-10T02:48:32.860Z,15.23
2018-09-10T02:49:32.904Z,15.52
2018-09-10T02:50:32.937Z,15.80
2018-09-10T02:51:32.976Z,15.71
2018-09-10T02:52:33.016Z,15.33
2018-09-10T02:53:33.071Z,15.05
2018-09-10T02:54:33.096Z,14.76
2018-09-10T02:55:33.135Z,15.05
2018-09-10T02:56:33.172Z,15.61
2018-09-10T02:57:33.211Z,15.90
2018-09-10T02:58:33.249Z,16.19
2018-09-10T02:59:33.288Z,16.47
2018-09-10T03:00:33.326Z,16.56
2018-09-10T03:01:33.367Z,16.38
2018-09-10T03:02:33.404Z,16.66
2018-09-10T03:03:33.471Z,16.75
2018-09-10T03:04:33.483Z,16.85
2018-09-10T03:05:33.526Z,16.95
2018-09-10T03:06:33.560Z,16.28
2018-09-10T03:07:33.602Z,15.90
2018-09-10T03:08:33.639Z,15.70
2018-09-10T03:09:33.676Z,15.14
2018-09-10T03:10:33.728Z,14.18
2018-09-10T03:11:33.754Z,13.89
2018-09-10T03:12:33.795Z,14.18
2018-09-10T03:13:33.830Z,14.18
2018-09-10T03:14:33.868Z,14.18
2018-09-10T03:15:33.909Z,13.89
2018-09-10T03:16:33.948Z,13.90
2018-09-10T03:17:33.995Z,14.37
2018-09-10T03:18:34.024Z,14.84
2018-09-10T03:19:34.065Z,14.65
2018-09-10T03:20:34.102Z,14.94
2018-09-10T03:21:34.142Z,15.03
2018-09-10T03:22:34.182Z,15.23
2018-09-10T03:23:34.217Z,15.42
2018-09-10T03:24:34.260Z,15.23
2018-09-10T03:25:34.295Z,15.13
2018-09-10T03:26:34.333Z,14.65
2018-09-10T03:27:34.371Z,14.65
2018-09-10T03:28:34.411Z,14.94
2018-09-10T03:29:34.469Z,15.13
2018-09-10T03:30:34.487Z,15.89
2018-09-10T03:31:34.538Z,16.27
2018-09-10T03:32:34.615Z,15.99
2018-09-10T03:33:34.670Z,16.46
2018-09-10T03:34:34.642Z,16.17
2018-09-10T03:35:34.685Z,16.27
2018-09-10T03:36:34.722Z,16.65
2018-09-10T03:37:34.759Z,16.85
2018-09-10T03:38:34.797Z,16.56
2018-09-10T03:39:34.836Z,15.89
2018-09-10T03:40:34.883Z,16.27
2018-09-10T03:41:34.914Z,15.32
2018-09-10T03:42:34.952Z,14.18
2018-09-10T03:43:34.991Z,14.28
2018-09-10T03:44:35.029Z,13.60
2018-09-10T03:45:35.067Z,13.70
2018-09-10T03:46:35.107Z,13.80
2018-09-10T03:47:35.147Z,13.70
2018-09-10T03:48:35.185Z,13.51
2018-09-10T03:49:35.225Z,13.51
2018-09-10T03:50:35.258Z,13.99
2018-09-10T03:51:35.299Z,14.37
2018-09-10T03:52:35.339Z,14.37
2018-09-10T03:53:35.376Z,14.94
2018-09-10T03:54:35.414Z,14.37
2018-09-10T03:55:35.453Z,13.89
2018-09-10T03:56:35.491Z,14.18
2018-09-10T03:57:35.530Z,13.99
2018-09-10T03:58:35.584Z,14.18
2018-09-10T03:59:35.611Z,14.08
2018-09-10T04:00:35.650Z,14.94
2018-09-10T04:01:35.685Z,15.03
2018-09-10T04:02:35.724Z,15.13
2018-09-10T04:03:35.765Z,14.65
2018-09-10T04:04:35.801Z,15.13
2018-09-10T04:05:35.846Z,14.37
2018-09-10T04:06:35.877Z,13.99
2018-09-10T04:07:35.919Z,13.89
2018-09-10T04:08:35.956Z,13.70
2018-09-10T04:09:35.993Z,13.99
2018-09-10T04:10:36.033Z,14.08
2018-09-10T04:11:36.075Z,13.70
2018-09-10T04:12:36.110Z,13.89
2018-09-10T04:13:36.148Z,13.99
2018-09-10T04:14:36.186Z,14.18
2018-09-10T04:15:36.226Z,13.99
2018-09-10T04:16:36.263Z,13.99
2018-09-10T04:17:36.301Z,13.80
2018-09-10T04:18:36.340Z,14.28
2018-09-10T04:19:36.378Z,13.99
2018-09-10T04:20:36.416Z,14.28
2018-09-10T04:21:36.456Z,14.28
2018-09-10T04:22:36.493Z,14.37
2018-09-10T04:23:36.535Z,14.65
2018-09-10T04:24:36.577Z,14.75
2018-09-10T04:25:36.610Z,14.65
2018-09-10T04:26:36.647Z,14.75
2018-09-10T04:27:36.695Z,14.18
2018-09-10T04:28:36.727Z,14.08
2018-09-10T04:29:36.764Z,14.37
2018-09-10T04:30:36.802Z,14.28
2018-09-10T04:31:36.840Z,14.28
2018-09-10T04:32:36.880Z,14.65
2018-09-10T04:33:36.919Z,14.94
2018-09-10T04:34:36.957Z,14.65
2018-09-10T04:35:36.996Z,14.94
2018-09-10T04:36:37.037Z,14.18
2018-09-10T04:37:37.073Z,14.37
2018-09-10T04:38:37.111Z,14.08
2018-09-10T04:39:37.150Z,13.99
2018-09-10T04:40:37.190Z,13.80
2018-09-10T04:41:37.234Z,14.08
2018-09-10T04:42:37.267Z,14.56
2018-09-10T04:43:37.304Z,15.03
2018-09-10T04:44:37.347Z,15.13
2018-09-10T04:45:37.382Z,15.32
2018-09-10T04:46:37.422Z,15.80
2018-09-10T04:47:37.466Z,15.89
2018-09-10T04:48:37.497Z,16.08
2018-09-10T04:49:37.601Z,15.61
2018-09-10T04:50:37.575Z,15.80
2018-09-10T04:51:37.614Z,15.32
2018-09-10T04:52:37.653Z,15.23
2018-09-10T04:53:37.692Z,15.42
2018-09-10T04:54:37.727Z,15.13
2018-09-10T04:55:37.768Z,15.13
2018-09-10T04:56:37.812Z,15.32
2018-09-10T04:57:37.849Z,15.51
2018-09-10T04:58:37.883Z,15.99
2018-09-10T04:59:37.924Z,16.08
2018-09-10T05:00:37.966Z,16.46
2018-09-10T05:01:38.000Z,16.08
2018-09-10T05:02:38.037Z,16.37
2018-09-10T05:03:38.076Z,16.94
2018-09-10T05:04:38.221Z,17.32
2018-09-10T05:05:38.154Z,18.18
2018-09-10T05:06:38.193Z,18.08
2018-09-10T05:07:38.231Z,18.27
2018-09-10T05:08:38.271Z,19.04
2018-09-10T05:09:38.310Z,19.03
2018-09-10T05:10:38.347Z,19.42
2018-09-10T05:11:38.391Z,19.32
2018-09-10T05:12:38.427Z,20.00
2018-09-10T05:13:38.469Z,19.81
2018-09-10T05:14:38.502Z,20.00
2018-09-10T05:15:38.543Z,20.00
2018-09-10T05:16:38.581Z,20.09
2018-09-10T05:17:38.619Z,20.37
2018-09-10T05:18:38.658Z,20.84
2018-09-10T05:19:38.697Z,20.37
2018-09-10T05:20:38.835Z,20.18
2018-09-10T05:21:38.773Z,20.00
2018-09-10T05:22:38.812Z,20.47
2018-09-10T05:23:38.851Z,21.04
2018-09-10T05:24:38.892Z,20.95
2018-09-10T05:25:38.929Z,21.33
2018-09-10T05:26:38.966Z,21.80
2018-09-10T05:27:39.005Z,21.99
2018-09-10T05:28:39.044Z,21.99
2018-09-10T05:29:39.088Z,22.09
2018-09-10T05:30:39.121Z,21.80
2018-09-10T05:31:39.169Z,22.19
2018-09-10T05:32:39.199Z,22.47
2018-09-10T05:33:39.242Z,22.56
2018-09-10T05:34:39.280Z,23.14
2018-09-10T05:35:39.316Z,23.90
2018-09-10T05:36:39.356Z,24.47
2018-09-10T05:37:39.394Z,24.09
2018-09-10T05:38:39.431Z,24.09
2018-09-10T05:39:39.471Z,24.47
2018-09-10T05:40:39.514Z,24.09
2018-09-10T05:41:39.635Z,24.47
2018-09-10T05:42:39.591Z,24.57
2018-09-10T05:43:39.635Z,24.57
2018-09-10T05:44:39.670Z,24.09
2018-09-10T05:45:39.706Z,23.90
2018-09-10T05:46:39.742Z,23.71
2018-09-10T05:47:39.988Z,23.90
2018-09-10T05:48:39.822Z,23.90
2018-09-10T05:49:39.860Z,24.28
2018-09-10T05:50:39.899Z,24.01
2018-09-10T05:51:39.941Z,23.91
2018-09-10T05:52:39.979Z,24.01
2018-09-10T05:53:40.017Z,24.01
2018-09-10T05:54:40.054Z,24.29
2018-09-10T05:55:40.145Z,25.34
2018-09-10T05:56:40.135Z,25.34
2018-09-10T05:57:40.171Z,26.88
2018-09-10T05:58:40.212Z,27.92
2018-09-10T05:59:40.257Z,30.31
2018-09-10T06:00:40.289Z,30.12
2018-09-10T06:01:40.328Z,30.31
2018-09-10T06:02:40.366Z,30.21
2018-09-10T06:03:40.406Z,33.07
2018-09-10T06:04:40.445Z,34.69
2018-09-10T06:05:40.486Z,36.90
2018-09-10T06:06:40.524Z,40.15
2018-09-10T06:07:40.571Z,37.86
2018-09-10T06:08:40.609Z,39.00
2018-09-10T06:09:40.644Z,38.53
2018-09-10T06:10:40.737Z,37.95
2018-09-10T06:11:40.728Z,36.71
2018-09-10T06:12:40.759Z,36.62
2018-09-10T06:13:40.803Z,37.95
2018-09-10T06:14:40.849Z,39.58
2018-09-10T06:15:40.880Z,40.15
2018-09-10T06:16:40.999Z,42.05
2018-09-10T06:17:40.960Z,45.68
2018-09-10T06:18:40.999Z,47.02
2018-09-10T06:19:41.047Z,47.80
2018-09-10T06:20:41.078Z,52.76
2018-09-10T06:21:41.118Z,58.11
2018-09-10T06:22:41.156Z,59.34
2018-09-10T06:23:41.197Z,58.11
2018-09-10T06:24:41.240Z,59.28
2018-09-10T06:25:41.276Z,54.99
2018-09-10T06:26:41.316Z,58.14
2018-09-10T06:27:41.354Z,58.33
2018-09-10T06:28:41.394Z,57.85
2018-09-10T06:29:41.434Z,63.20
2018-09-10T06:30:41.473Z,65.20
2018-09-10T06:31:41.520Z,66.00
2018-09-10T06:32:41.553Z,68.38
2018-09-10T06:33:41.593Z,68.29
2018-09-10T06:34:41.662Z,68.19
2018-09-10T06:35:41.681Z,67.24
2018-09-10T06:36:41.718Z,70.01
2018-09-10T06:37:41.753Z,71.82
2018-09-10T06:38:41.793Z,72.30
2018-09-10T06:39:41.833Z,73.00
2018-09-10T06:40:41.873Z,74.34
2018-09-10T06:41:41.916Z,70.33
2018-09-10T06:42:41.958Z,71.09
2018-09-10T06:43:42.001Z,72.72
2018-09-10T06:44:42.053Z,73.61
2018-09-10T06:45:42.074Z,71.22
2018-09-10T06:46:42.114Z,75.14
2018-09-10T06:47:42.159Z,74.48
2018-09-10T06:48:42.195Z,74.38
2018-09-10T06:49:42.236Z,75.18
2018-09-10T06:50:42.276Z,79.00
2018-09-10T06:51:42.317Z,80.63
2018-09-10T06:52:42.358Z,82.83
2018-09-10T06:53:42.397Z,83.50
2018-09-10T06:54:42.446Z,83.69
2018-09-10T06:55:42.478Z,78.34
2018-09-10T06:56:42.522Z,81.68
2018-09-10T06:57:42.559Z,81.88
2018-09-10T06:58:42.599Z,82.68
2018-09-10T06:59:42.646Z,82.07
2018-09-10T07:00:42.682Z,83.36
2018-09-10T07:01:42.722Z,83.83
2018-09-10T07:02:42.762Z,84.31
2018-09-10T07:03:42.803Z,84.31
2018-09-10T07:04:42.846Z,83.64
2018-09-10T07:05:42.886Z,85.08
2018-09-10T07:06:42.927Z,85.75
2018-09-10T07:07:42.967Z,86.90
2018-09-10T07:08:43.009Z,87.47
2018-09-10T07:09:43.050Z,88.04
2018-09-10T07:10:43.089Z,88.04
2018-09-10T07:11:43.133Z,88.23
2018-09-10T07:12:43.204Z,87.08
2018-09-10T07:13:43.214Z,88.04
2018-09-10T07:14:43.257Z,87.47
2018-09-10T07:15:43.295Z,86.61
2018-09-10T07:16:43.337Z,86.61
2018-09-10T07:17:43.379Z,86.36
2018-09-10T07:18:43.554Z,88.18
2018-09-10T07:19:43.460Z,89.33
2018-09-10T07:20:43.500Z,88.37
2018-09-10T07:21:43.541Z,88.95
2018-09-10T07:22:43.603Z,88.76
2018-09-10T07:23:43.624Z,89.33
2018-09-10T07:24:43.663Z,90.29
2018-09-10T07:25:43.703Z,91.10
2018-09-10T07:26:43.744Z,91.25
2018-09-10T07:27:43.786Z,91.39
2018-09-10T07:28:43.827Z,91.19
2018-09-10T07:29:43.868Z,91.19
2018-09-10T07:30:43.908Z,91.39
2018-09-10T07:31:43.950Z,91.19
2018-09-10T07:32:43.990Z,91.67
2018-09-10T07:33:44.033Z,93.40
2018-09-10T07:34:44.073Z,93.88
2018-09-10T07:35:44.116Z,93.59
2018-09-10T07:36:44.156Z,94.02
2018-09-10T07:37:44.197Z,93.44
2018-09-10T07:38:44.242Z,93.16
2018-09-10T07:39:44.279Z,94.21
2018-09-10T07:40:44.323Z,94.02
2018-09-10T07:41:44.363Z,92.77
2018-09-10T07:42:44.402Z,93.44
2018-09-10T07:43:44.522Z,94.12
2018-09-10T07:44:44.486Z,94.45
2018-09-10T07:45:44.529Z,94.26
2018-09-10T07:46:44.588Z,93.78
2018-09-10T07:47:44.610Z,94.45
2018-09-10T07:48:44.686Z,94.64
2018-09-10T07:49:44.695Z,95.89
2018-09-10T07:50:44.737Z,95.89
2018-09-10T07:51:44.776Z,95.89
2018-09-10T07:52:44.824Z,96.27
2018-09-10T07:53:44.859Z,96.42
2018-09-10T07:54:44.902Z,96.70
2018-09-10T07:55:44.944Z,96.42
2018-09-10T07:56:44.987Z,94.98
2018-09-10T07:57:45.027Z,95.94
2018-09-10T07:58:45.069Z,95.94
2018-09-10T07:59:45.110Z,95.84
2018-09-10T08:00:45.169Z,96.99
2018-09-10T08:01:45.193Z,96.37
2018-09-10T08:02:45.234Z,97.14
2018-09-10T08:03:45.285Z,96.47
2018-09-10T08:04:45.320Z,96.85
2018-09-10T08:05:45.362Z,97.14
2018-09-10T08:06:45.406Z,97.42
2018-09-10T08:07:45.444Z,97.24
2018-09-10T08:08:45.494Z,97.42
2018-09-10T08:09:45.530Z,97.81
2018-09-10T08:10:45.618Z,97.47
2018-09-10T08:11:45.611Z,97.66
2018-09-10T08:12:45.659Z,97.09
2018-09-10T08:13:45.696Z,97.76
2018-09-10T08:14:45.738Z,98.19
2018-09-10T08:15:45.780Z,98.96
2018-09-10T08:16:45.823Z,98.00
2018-09-10T08:17:45.872Z,97.62
2018-09-10T08:18:45.904Z,98.19
2018-09-10T08:19:45.946Z,99.49
2018-09-10T08:20:45.988Z,98.72
2018-09-10T08:21:46.030Z,98.53
2018-09-10T08:22:46.072Z,99.30
2018-09-10T08:23:46.113Z,98.53
2018-09-10T08:24:46.157Z,99.06
2018-09-10T08:25:46.200Z,99.35
2018-09-10T08:26:46.241Z,99.64
2018-09-10T08:27:46.283Z,99.99
2018-09-10T08:28:46.325Z,99.44
2018-09-10T08:29:46.369Z,99.16
2018-09-10T08:30:46.412Z,99.83
2018-09-10T08:31:46.452Z,99.73
2018-09-10T08:32:46.495Z,99.99
2018-09-10T08:33:46.538Z,99.99
2018-09-10T08:34:46.579Z,99.99
2018-09-10T08:35:46.622Z,99.99
2018-09-10T08:36:46.666Z,99.99
2018-09-10T08:37:46.707Z,99.99
2018-09-10T08:38:46.758Z,99.99
2018-09-10T08:39:46.793Z,99.99
2018-09-10T08:40:46.835Z,99.99
2018-09-10T08:41:46.891Z,99.99
2018-09-10T08:42:46.951Z,99.99
2018-09-10T08:43:46.964Z,99.99
2018-09-10T08:44:47.006Z,99.99
2018-09-10T08:45:47.049Z,99.99
2018-09-10T08:46:47.091Z,99.99
2018-09-10T08:47:47.134Z,99.99
2018-09-10T08:48:47.177Z,99.99
2018-09-10T08:49:47.220Z,99.99
2018-09-10T08:50:47.261Z,99.99
2018-09-10T08:51:47.304Z,99.99
2018-09-10T08:52:47.348Z,99.99
2018-09-10T08:53:47.390Z,99.99
2018-09-10T08:54:47.689Z,99.99
2018-09-10T08:55:47.728Z,99.99
2018-09-10T08:56:47.521Z,99.99
2018-09-10T08:57:47.561Z,99.99
2018-09-10T08:58:47.602Z,99.99
2018-09-10T08:59:47.646Z,99.74
2018-09-10T09:00:47.690Z,99.99
2018-09-10T09:01:47.741Z,99.99
2018-09-10T09:02:47.775Z,99.99
2018-09-10T09:03:47.820Z,99.99
2018-09-10T09:04:47.863Z,99.99
2018-09-10T09:05:47.967Z,99.99
2018-09-10T09:06:47.947Z,99.99
2018-09-10T09:07:47.991Z,99.55
2018-09-10T09:08:48.032Z,99.84
2018-09-10T09:09:48.077Z,99.99
2018-09-10T09:10:48.117Z,99.64
2018-09-10T09:11:48.168Z,99.69
2018-09-10T09:12:48.208Z,99.79
2018-09-10T09:13:48.248Z,98.05
2018-09-10T09:14:48.294Z,99.50
2018-09-10T09:15:48.334Z,98.44
2018-09-10T09:16:48.381Z,99.30
2018-09-10T09:17:48.420Z,99.21
2018-09-10T09:18:48.460Z,98.39
2018-09-10T09:19:48.505Z,99.16
2018-09-10T09:20:48.547Z,99.26
2018-09-10T09:21:48.592Z,98.39
2018-09-10T09:22:48.633Z,98.20
2018-09-10T09:23:48.677Z,98.39
2018-09-10T09:24:48.770Z,98.20
2018-09-10T09:25:48.764Z,98.49
2018-09-10T09:26:48.810Z,98.10
2018-09-10T09:27:48.849Z,98.87
2018-09-10T09:28:48.892Z,97.81
2018-09-10T09:29:48.942Z,98.00
2018-09-10T09:30:48.978Z,97.14
2018-09-10T09:31:49.022Z,98.15
2018-09-10T09:32:49.065Z,97.81
2018-09-10T09:33:49.112Z,98.39
2018-09-10T09:34:49.152Z,99.35
2018-09-10T09:35:49.196Z,98.87
2018-09-10T09:36:49.240Z,99.07
2018-09-10T09:37:49.283Z,98.87
2018-09-10T09:38:49.327Z,98.87
2018-09-10T09:39:49.370Z,99.60
2018-09-10T09:40:49.413Z,99.11
2018-09-10T09:41:49.462Z,98.82
2018-09-10T09:42:49.500Z,98.82
2018-09-10T09:43:49.545Z,98.63
2018-09-10T09:44:49.587Z,99.02
2018-09-10T09:45:49.629Z,99.99
2018-09-10T09:46:49.671Z,99.99
2018-09-10T09:47:49.715Z,99.88
2018-09-10T09:48:49.758Z,99.99
2018-09-10T09:49:49.801Z,99.60
2018-09-10T09:50:49.845Z,98.92
2018-09-10T09:51:49.891Z,99.93
2018-09-10T09:52:49.938Z,98.78
2018-09-10T09:53:49.983Z,99.99
2018-09-10T09:54:50.018Z,99.65
2018-09-10T09:55:50.065Z,99.93
2018-09-10T09:56:50.105Z,98.58
2018-09-10T09:57:50.148Z,98.97
2018-09-10T09:58:50.192Z,99.26
2018-09-10T09:59:50.389Z,98.87
2018-09-10T10:00:50.279Z,99.11
2018-09-10T10:01:50.323Z,99.31
2018-09-10T10:02:50.364Z,98.54
2018-09-10T10:03:50.406Z,98.44
2018-09-10T10:04:50.451Z,97.96
2018-09-10T10:05:50.504Z,97.86
2018-09-10T10:06:50.543Z,97.57
2018-09-10T10:07:50.581Z,97.86
2018-09-10T10:08:50.626Z,97.96
2018-09-10T10:09:50.677Z,97.77
2018-09-10T10:10:50.710Z,97.38
2018-09-10T10:11:50.863Z,98.34
2018-09-10T10:12:50.799Z,97.77
2018-09-10T10:13:50.841Z,97.42
2018-09-10T10:14:50.884Z,98.10
2018-09-10T10:15:50.926Z,97.42
2018-09-10T10:16:50.970Z,96.41
2018-09-10T10:17:51.014Z,95.83
2018-09-10T10:18:51.057Z,97.09
2018-09-10T10:19:51.102Z,96.31
2018-09-10T10:20:51.152Z,97.38
2018-09-10T10:21:51.233Z,95.98
2018-09-10T10:22:51.232Z,95.88
2018-09-10T10:23:51.273Z,94.62
2018-09-10T10:24:51.317Z,94.62
2018-09-10T10:25:51.362Z,95.54
2018-09-10T10:26:51.406Z,94.76
2018-09-10T10:27:51.448Z,94.38
2018-09-10T10:28:51.492Z,94.86
2018-09-10T10:29:51.540Z,95.34
2018-09-10T10:30:51.579Z,94.33
2018-09-10T10:31:51.624Z,94.23
2018-09-10T10:32:51.669Z,94.81
2018-09-10T10:33:51.720Z,92.97
2018-09-10T10:34:51.758Z,92.83
2018-09-10T10:35:51.808Z,92.83
2018-09-10T10:36:51.846Z,93.60
2018-09-10T10:37:51.891Z,91.18
2018-09-10T10:38:51.930Z,92.44
2018-09-10T10:39:51.976Z,90.02
2018-09-10T10:40:52.021Z,91.81
2018-09-10T10:41:52.069Z,90.84
2018-09-10T10:42:52.108Z,91.22
2018-09-10T10:43:52.151Z,89.09
2018-09-10T10:44:52.196Z,88.85
2018-09-10T10:45:52.241Z,88.75
2018-09-10T10:46:52.285Z,87.82
2018-09-10T10:47:52.334Z,89.28
2018-09-10T10:48:52.375Z,88.31
2018-09-10T10:49:52.419Z,86.18
2018-09-10T10:50:52.471Z,86.22
2018-09-10T10:51:52.508Z,86.90
2018-09-10T10:52:52.553Z,84.38
2018-09-10T10:53:52.753Z,84.96
2018-09-10T10:54:52.642Z,84.67
2018-09-10T10:55:52.686Z,82.15
2018-09-10T10:56:52.732Z,82.67
2018-09-10T10:57:52.777Z,80.93
2018-09-10T10:58:52.820Z,79.08
2018-09-10T10:59:52.865Z,78.31
2018-09-10T11:00:52.913Z,77.14
2018-09-10T11:01:52.963Z,77.72
2018-09-10T11:02:53.003Z,76.79
2018-09-10T11:03:53.048Z,78.05
2018-09-10T11:04:53.092Z,75.98
2018-09-10T11:05:53.137Z,76.69
2018-09-10T11:06:53.190Z,78.64
2018-09-10T11:07:53.230Z,80.48
2018-09-10T11:08:53.273Z,80.19
2018-09-10T11:09:53.318Z,78.73
2018-09-10T11:10:53.362Z,77.47
2018-09-10T11:11:53.408Z,76.46
2018-09-10T11:12:53.452Z,76.40
2018-09-10T11:13:53.498Z,74.43
2018-09-10T11:14:53.544Z,75.88
2018-09-10T11:15:53.591Z,77.82
2018-09-10T11:16:53.641Z,76.65
2018-09-10T11:17:53.686Z,75.98
2018-09-10T11:18:53.723Z,75.59
2018-09-10T11:19:53.769Z,76.07
2018-09-10T11:20:53.816Z,78.50
2018-09-10T11:21:53.865Z,78.21
2018-09-10T11:22:53.912Z,78.59
2018-09-10T11:23:53.967Z,75.78
2018-09-10T11:24:53.998Z,76.89
2018-09-10T11:25:54.043Z,75.53
2018-09-10T11:26:54.087Z,74.56
2018-09-10T11:27:54.132Z,77.18
2018-09-10T11:28:54.178Z,74.11
2018-09-10T11:29:54.223Z,76.15
2018-09-10T11:30:54.267Z,74.98
2018-09-10T11:31:54.319Z,75.08
2018-09-10T11:32:54.361Z,74.69
2018-09-10T11:33:54.405Z,73.82
2018-09-10T11:34:54.451Z,71.58
2018-09-10T11:35:54.504Z,70.51
2018-09-10T11:36:54.541Z,70.26
2018-09-10T11:37:54.587Z,71.81
2018-09-10T11:38:54.632Z,70.16
2018-09-10T11:39:54.703Z,70.68
2018-09-10T11:40:54.725Z,69.03
2018-09-10T11:41:54.769Z,66.11
2018-09-10T11:42:54.814Z,66.40
2018-09-10T11:43:54.861Z,67.18
2018-09-10T11:44:54.906Z,65.95
2018-09-10T11:45:54.952Z,67.11
2018-09-10T11:46:54.997Z,67.21
2018-09-10T11:47:55.044Z,68.77
2018-09-10T11:48:55.092Z,66.14
2018-09-10T11:49:55.150Z,66.44
2018-09-10T11:50:55.188Z,67.11
2018-09-10T11:51:55.227Z,66.73
2018-09-10T11:52:55.282Z,67.11
2018-09-10T11:53:55.330Z,66.86
2018-09-10T11:54:55.367Z,65.66
2018-09-10T11:55:55.410Z,63.65
2018-09-10T11:56:55.467Z,64.23
2018-09-10T11:57:55.508Z,64.13
2018-09-10T11:58:55.548Z,64.81
2018-09-10T11:59:55.597Z,66.24
2018-09-10T12:00:55.640Z,64.23
2018-09-10T12:01:55.697Z,63.65
2018-09-10T12:02:55.737Z,64.23
2018-09-10T12:03:55.779Z,63.84
2018-09-10T12:04:55.825Z,60.79
2018-09-10T12:05:55.873Z,59.66
2018-09-10T12:06:55.916Z,62.06
2018-09-10T12:07:55.971Z,62.29
2018-09-10T12:08:56.009Z,61.41
2018-09-10T12:09:56.064Z,60.34
2018-09-10T12:10:56.100Z,59.85
2018-09-10T12:11:56.147Z,59.59
2018-09-10T12:12:56.203Z,60.85
2018-09-10T12:13:56.242Z,60.66
2018-09-10T12:14:56.289Z,56.57
2018-09-10T12:15:56.334Z,58.22
2018-09-10T12:16:56.380Z,55.89
2018-09-10T12:17:56.431Z,54.52
2018-09-10T12:18:56.479Z,55.21
2018-09-10T12:19:56.521Z,56.30
2018-09-10T12:20:56.568Z,57.67
2018-09-10T12:21:56.614Z,57.57
2018-09-10T12:22:56.656Z,56.30
2018-09-10T12:23:56.710Z,53.87
2018-09-10T12:24:56.753Z,54.26
2018-09-10T12:25:56.797Z,54.97
2018-09-10T12:26:56.841Z,55.16
2018-09-10T12:27:56.889Z,54.48
2018-09-10T12:28:56.937Z,54.48
2018-09-10T12:29:56.983Z,54.77
2018-09-10T12:30:57.032Z,54.19
2018-09-10T12:31:57.074Z,53.83
2018-09-10T12:32:57.121Z,53.63
2018-09-10T12:33:57.168Z,53.53
2018-09-10T12:34:57.215Z,54.53
2018-09-10T12:35:57.264Z,52.75
2018-09-10T12:36:57.309Z,51.78
2018-09-10T12:37:57.355Z,53.34
2018-09-10T12:38:57.404Z,53.73
2018-09-10T12:39:57.450Z,53.34
2018-09-10T12:40:57.504Z,52.07
2018-09-10T12:41:57.544Z,51.36
2018-09-10T12:42:57.589Z,52.24
2018-09-10T12:43:57.637Z,52.63
2018-09-10T12:44:57.688Z,49.22
2018-09-10T12:45:57.730Z,48.63
2018-09-10T12:46:57.785Z,48.32
2018-09-10T12:47:57.830Z,50.09
2018-09-10T12:48:57.879Z,48.05
2018-09-10T12:49:57.970Z,48.63
2018-09-10T12:50:57.967Z,47.85
2018-09-10T12:51:58.015Z,48.05
2018-09-10T12:52:58.068Z,48.27